Time;durP1;ratioP1;P1;durP2;ratioP2;P2;SDS_P1;SDS_P2;PMS_P1;PMS_P2;Temp;Humidity;BMP_temperature;BMP_pressure;BME280_temperature;BME280_humidity;BME280_pressure;Samples;Min_cycle;Max_cycle;Signal;HPM_P1;HPM_P2
2021/08/13 00:00:16;;;;;;;9.07;3.55;;;20.10;67.50;;;;;;5034266;28;20028;-75
2021/08/13 00:02:42;;;;;;;6.43;3.63;;;20.10;67.60;;;;;;5035359;28;20056;-75
2021/08/13 00:05:09;;;;;;;7.75;3.60;;;20.00;67.60;;;;;;5034296;28;20399;-75
2021/08/13 00:07:34;;;;;;;6.85;3.83;;;20.00;67.70;;;;;;5035323;28;20474;-75
2021/08/13 00:10:00;;;;;;;6.63;4.00;;;20.00;67.80;;;;;;5035277;28;20018;-76
2021/08/13 00:12:26;;;;;;;7.57;3.67;;;20.00;67.90;;;;;;5034268;28;20047;-76
2021/08/13 00:14:51;;;;;;;12.00;3.85;;;20.00;67.90;;;;;;5034021;28;20030;-76
2021/08/13 00:17:17;;;;;;;7.88;3.85;;;20.00;67.90;;;;;;5035317;28;20097;-76
2021/08/13 00:19:43;;;;;;;5.90;3.55;;;20.00;68.00;;;;;;5033525;28;20448;-76
2021/08/13 00:22:08;;;;;;;6.13;3.72;;;20.00;68.10;;;;;;5030362;28;20104;-76
2021/08/13 00:24:34;;;;;;;7.03;3.80;;;20.00;68.10;;;;;;5035137;28;20028;-76
2021/08/13 00:26:59;;;;;;;6.18;3.45;;;20.00;68.20;;;;;;5031968;28;20022;-76
2021/08/13 00:29:25;;;;;;;6.65;3.80;;;20.00;68.30;;;;;;5033330;28;20060;-76
2021/08/13 00:31:51;;;;;;;9.13;3.92;;;20.00;68.20;;;;;;5033283;28;20026;-76
2021/08/13 00:34:16;;;;;;;6.13;3.35;;;19.90;68.10;;;;;;5034952;28;20052;-76
2021/08/13 00:36:42;;;;;;;8.20;3.75;;;19.90;68.30;;;;;;5035153;28;20029;-76
2021/08/13 00:39:08;;;;;;;7.47;3.40;;;19.90;68.40;;;;;;5033535;28;20116;-76
2021/08/13 00:41:33;;;;;;;7.78;3.60;;;19.90;68.50;;;;;;5034752;28;20053;-75
2021/08/13 00:43:59;;;;;;;7.78;3.50;;;19.90;68.50;;;;;;5034220;28;20025;-76
2021/08/13 00:46:25;;;;;;;6.38;3.40;;;19.90;68.50;;;;;;5039882;28;20036;-75
2021/08/13 00:48:51;;;;;;;10.85;3.50;;;19.90;68.50;;;;;;5057532;28;20402;-74
2021/08/13 00:51:16;;;;;;;6.35;3.40;;;19.90;68.50;;;;;;5046173;28;20057;-75
2021/08/13 00:53:42;;;;;;;7.35;3.90;;;19.90;68.60;;;;;;5040977;28;20079;-75
2021/08/13 00:56:10;;;;;;;9.35;3.83;;;19.90;68.60;;;;;;5034588;28;20025;-77
2021/08/13 00:58:35;;;;;;;8.02;3.58;;;19.90;68.70;;;;;;5033465;28;20029;-76
2021/08/13 01:01:01;;;;;;;6.53;3.85;;;19.90;68.80;;;;;;5032581;28;20375;-75
2021/08/13 01:03:28;;;;;;;8.07;3.80;;;19.90;68.90;;;;;;5031321;28;20036;-75
2021/08/13 01:05:54;;;;;;;7.50;3.33;;;19.90;68.90;;;;;;5033082;28;20033;-75
2021/08/13 01:08:19;;;;;;;5.88;3.30;;;19.90;68.90;;;;;;5032869;28;20055;-75
2021/08/13 01:10:55;;;;;;;6.80;3.53;;;19.90;68.90;;;;;;5031628;28;20021;-75
2021/08/13 01:13:41;;;;;;;6.75;3.80;;;19.90;69.00;;;;;;5031989;28;20032;-75
2021/08/13 01:16:07;;;;;;;6.35;3.70;;;19.90;68.90;;;;;;5033310;28;20025;-76
2021/08/13 01:18:44;;;;;;;9.55;3.90;;;19.90;68.90;;;;;;5032505;28;20044;-75
2021/08/13 01:21:31;;;;;;;7.95;4.03;;;19.80;69.00;;;;;;5032446;28;20526;-74
2021/08/13 01:24:16;;;;;;;6.13;3.40;;;19.80;69.10;;;;;;5032424;28;20175;-75
2021/08/13 01:26:51;;;;;;;8.75;3.72;;;19.80;69.00;;;;;;5033147;28;20029;-73
2021/08/13 01:29:37;;;;;;;6.28;3.53;;;19.80;68.90;;;;;;5013156;28;20034;-75
2021/08/13 01:32:12;;;;;;;7.78;3.63;;;19.80;68.90;;;;;;5026944;28;20045;-75
2021/08/13 01:34:45;;;;;;;9.38;3.97;;;19.80;69.00;;;;;;5033676;28;20049;-75
2021/08/13 01:37:13;;;;;;;6.28;3.38;;;19.80;69.00;;;;;;5033409;28;20056;-75
2021/08/13 01:39:41;;;;;;;5.93;3.40;;;19.80;69.00;;;;;;5033792;28;20044;-75
2021/08/13 01:42:08;;;;;;;8.90;3.60;;;19.80;69.00;;;;;;5033834;28;20018;-75
2021/08/13 01:44:35;;;;;;;8.50;3.60;;;19.70;69.00;;;;;;5032442;28;20021;-75
2021/08/13 01:47:02;;;;;;;8.63;3.83;;;19.70;69.00;;;;;;5033537;28;20017;-75
2021/08/13 01:49:30;;;;;;;8.00;4.05;;;19.70;69.00;;;;;;5032123;28;20079;-75
2021/08/13 01:51:56;;;;;;;7.70;3.42;;;19.80;69.20;;;;;;5032935;28;20521;-75
2021/08/13 01:54:24;;;;;;;7.07;3.35;;;19.70;69.10;;;;;;5031925;28;20041;-75
2021/08/13 01:56:50;;;;;;;7.13;3.72;;;19.70;69.10;;;;;;5029537;28;20108;-75
2021/08/13 01:59:17;;;;;;;8.27;3.47;;;19.70;69.20;;;;;;5030584;28;20021;-75
2021/08/13 02:01:44;;;;;;;6.93;3.67;;;19.70;69.20;;;;;;5033730;28;20036;-74
2021/08/13 02:04:13;;;;;;;7.05;3.58;;;19.70;69.30;;;;;;5032079;28;20116;-74
2021/08/13 02:06:40;;;;;;;8.23;3.80;;;19.70;69.30;;;;;;5031688;28;20022;-75
2021/08/13 02:09:06;;;;;;;5.70;3.33;;;19.70;69.30;;;;;;5032335;28;20546;-75
2021/08/13 02:11:32;;;;;;;7.10;3.75;;;19.60;69.30;;;;;;5033472;28;20096;-75
2021/08/13 02:13:58;;;;;;;6.22;3.20;;;19.60;69.40;;;;;;5033232;28;20083;-75
2021/08/13 02:16:27;;;;;;;5.88;3.47;;;19.60;69.40;;;;;;5032659;28;20017;-74
2021/08/13 02:19:22;;;;;;;6.53;3.40;;;19.50;69.40;;;;;;5033652;28;20535;-74
2021/08/13 02:21:49;;;;;;;7.18;3.42;;;19.50;69.50;;;;;;5034868;28;20364;-75
2021/08/13 02:24:17;;;;;;;7.18;3.80;;;19.50;69.60;;;;;;5036424;28;20822;-75
2021/08/13 02:26:44;;;;;;;6.63;3.50;;;19.40;69.70;;;;;;5039259;28;20032;-75
2021/08/13 02:29:10;;;;;;;8.23;3.50;;;19.40;69.90;;;;;;5041204;28;20124;-74
2021/08/13 02:31:36;;;;;;;7.60;3.60;;;19.40;69.90;;;;;;5035627;28;20109;-75
2021/08/13 02:34:02;;;;;;;7.35;4.10;;;19.40;69.90;;;;;;5035592;28;20029;-74
2021/08/13 02:36:39;;;;;;;7.03;3.58;;;19.40;69.90;;;;;;5035323;28;20017;-74
2021/08/13 02:39:13;;;;;;;8.05;3.80;;;19.40;70.00;;;;;;5035615;28;20418;-75
2021/08/13 02:41:42;;;;;;;7.72;3.45;;;19.40;70.20;;;;;;5036124;28;20076;-75
2021/08/13 02:44:09;;;;;;;7.22;3.72;;;19.30;70.20;;;;;;5036336;28;20033;-74
2021/08/13 02:46:42;;;;;;;6.88;3.58;;;19.30;70.30;;;;;;5035804;28;20045;-75
2021/08/13 02:49:10;;;;;;;6.88;3.40;;;19.40;70.40;;;;;;5035300;28;20033;-73
2021/08/13 02:51:40;;;;;;;6.45;3.92;;;19.40;70.40;;;;;;5035452;28;20455;-74
2021/08/13 02:54:08;;;;;;;7.18;3.65;;;19.40;70.50;;;;;;5036384;28;20021;-74
2021/08/13 02:56:36;;;;;;;6.18;3.40;;;19.40;70.60;;;;;;5034802;28;20404;-75
2021/08/13 02:59:06;;;;;;;12.68;4.13;;;19.40;70.60;;;;;;5035393;28;20025;-75
2021/08/13 03:01:34;;;;;;;10.55;3.70;;;19.50;70.70;;;;;;5035230;28;20029;-75
2021/08/13 03:04:05;;;;;;;5.97;3.60;;;19.50;70.60;;;;;;5030696;28;20025;-68
2021/08/13 03:06:35;;;;;;;7.70;3.92;;;19.70;70.60;;;;;;5036591;28;20041;-68
2021/08/13 03:09:02;;;;;;;8.32;3.75;;;19.90;70.40;;;;;;5044334;28;20034;-68
2021/08/13 03:11:29;;;;;;;8.18;3.75;;;20.10;70.20;;;;;;5035918;28;20117;-70
2021/08/13 03:13:55;;;;;;;7.55;3.55;;;20.20;69.80;;;;;;5034539;28;20037;-70
2021/08/13 03:16:20;;;;;;;7.25;3.97;;;20.40;69.50;;;;;;5036324;28;20151;-69
2021/08/13 03:18:47;;;;;;;6.38;3.42;;;20.60;69.10;;;;;;5035197;28;20032;-68
2021/08/13 03:21:14;;;;;;;10.38;3.85;;;20.80;68.70;;;;;;5034830;28;20390;-73
2021/08/13 03:23:40;;;;;;;6.60;3.95;;;21.00;68.40;;;;;;5034835;28;20033;-77
2021/08/13 03:26:07;;;;;;;7.38;3.83;;;21.20;67.90;;;;;;5034556;28;20049;-77
2021/08/13 03:28:36;;;;;;;7.32;3.70;;;21.40;67.60;;;;;;5038150;28;20087;-79
2021/08/13 03:31:02;;;;;;;6.63;3.78;;;21.60;67.10;;;;;;5049965;28;20112;-75
2021/08/13 03:33:28;;;;;;;9.45;4.03;;;21.80;66.70;;;;;;5031726;28;20360;-85
2021/08/13 03:35:56;;;;;;;7.55;4.20;;;22.00;66.30;;;;;;5035629;28;20036;-76
2021/08/13 03:38:22;;;;;;;9.75;3.70;;;22.20;65.90;;;;;;5043389;28;20460;-77
2021/08/13 03:40:47;;;;;;;7.38;3.88;;;22.40;65.30;;;;;;5034531;28;20031;-76
2021/08/13 03:43:13;;;;;;;7.38;4.03;;;22.70;64.90;;;;;;5036054;28;20025;-76
2021/08/13 03:45:39;;;;;;;8.05;3.95;;;22.90;64.40;;;;;;5036250;28;20021;-76
2021/08/13 03:48:05;;;;;;;8.68;4.10;;;23.10;63.90;;;;;;5036792;28;20107;-76
2021/08/13 03:50:30;;;;;;;8.48;4.05;;;23.30;63.20;;;;;;5045727;28;20044;-76
2021/08/13 03:52:56;;;;;;;8.02;3.63;;;23.50;62.80;;;;;;5035726;28;20029;-77
2021/08/13 03:55:22;;;;;;;8.55;3.88;;;23.70;62.30;;;;;;5034295;28;20456;-76
2021/08/13 03:57:47;;;;;;;8.13;3.60;;;24.00;61.80;;;;;;5035302;28;20064;-76
2021/08/13 04:00:13;;;;;;;7.22;3.88;;;24.20;61.20;;;;;;5035630;28;20444;-77
2021/08/13 04:02:39;;;;;;;7.38;3.80;;;24.50;60.50;;;;;;5035308;28;20022;-77
2021/08/13 04:05:05;;;;;;;6.82;3.60;;;24.80;59.80;;;;;;5035096;28;20024;-77
2021/08/13 04:07:31;;;;;;;6.43;3.33;;;25.00;59.30;;;;;;5033360;28;20049;-76
2021/08/13 04:09:57;;;;;;;7.32;3.60;;;25.30;58.80;;;;;;5034740;28;20467;-77
2021/08/13 04:12:22;;;;;;;6.68;3.72;;;25.60;58.30;;;;;;5034869;28;20100;-77
2021/08/13 04:14:48;;;;;;;5.65;3.28;;;25.80;57.40;;;;;;5034480;28;20092;-77
2021/08/13 04:17:14;;;;;;;7.22;3.92;;;26.00;56.80;;;;;;5035163;28;20010;-77
2021/08/13 04:19:41;;;;;;;7.32;3.60;;;26.20;56.60;;;;;;5034549;28;20017;-76
2021/08/13 04:22:08;;;;;;;7.60;3.38;;;26.40;55.80;;;;;;5034685;28;20013;-78
2021/08/13 04:24:34;;;;;;;5.72;3.40;;;26.60;55.50;;;;;;5035317;28;20037;-75
2021/08/13 04:27:01;;;;;;;7.82;3.35;;;26.80;55.00;;;;;;5033577;28;20022;-75
2021/08/13 04:29:26;;;;;;;5.57;3.30;;;27.00;54.60;;;;;;5033716;28;20519;-75
2021/08/13 04:31:52;;;;;;;5.60;3.50;;;27.30;54.20;;;;;;5033654;28;20124;-75
2021/08/13 04:34:18;;;;;;;6.85;3.80;;;27.50;53.60;;;;;;5020389;28;20407;-76
2021/08/13 04:36:44;;;;;;;5.78;3.50;;;27.70;53.40;;;;;;5034805;28;20033;-76
2021/08/13 04:39:10;;;;;;;6.53;3.35;;;27.90;53.00;;;;;;5025514;28;20094;-76
2021/08/13 04:41:36;;;;;;;5.63;3.53;;;28.00;52.30;;;;;;5013521;28;20064;-76
2021/08/13 04:44:02;;;;;;;6.15;3.40;;;28.10;52.00;;;;;;5014488;28;20411;-76
2021/08/13 04:46:27;;;;;;;7.45;3.70;;;28.20;51.90;;;;;;5029643;28;20395;-76
2021/08/13 04:48:53;;;;;;;6.88;3.25;;;28.40;51.80;;;;;;5014560;28;20026;-75
2021/08/13 04:51:19;;;;;;;8.70;3.65;;;28.50;51.50;;;;;;5022390;28;20052;-76
2021/08/13 04:53:45;;;;;;;7.97;3.67;;;28.70;51.30;;;;;;5033337;28;20452;-76
2021/08/13 04:56:10;;;;;;;5.78;3.50;;;28.90;50.80;;;;;;5033034;28;20422;-75
2021/08/13 04:58:36;;;;;;;7.43;3.88;;;29.00;50.50;;;;;;5032931;28;20423;-75
2021/08/13 05:01:01;;;;;;;7.80;3.50;;;29.10;50.30;;;;;;5033112;28;20025;-75
2021/08/13 05:03:27;;;;;;;5.47;3.20;;;29.10;50.30;;;;;;5032449;28;20025;-75
2021/08/13 05:05:53;;;;;;;6.05;3.53;;;29.30;50.40;;;;;;5032861;28;20121;-87
2021/08/13 05:08:19;;;;;;;7.35;3.60;;;29.50;50.30;;;;;;5013045;28;20045;-82
2021/08/13 05:10:45;;;;;;;7.40;3.80;;;29.70;50.00;;;;;;5013759;28;20368;-76
2021/08/13 05:13:10;;;;;;;9.13;3.80;;;29.80;49.80;;;;;;5012804;28;20022;-75
2021/08/13 05:15:36;;;;;;;6.68;3.85;;;30.00;50.00;;;;;;5014638;28;20096;-74
2021/08/13 05:18:06;;;;;;;8.35;3.65;;;30.20;49.40;;;;;;5013245;28;20035;-72
2021/08/13 05:20:31;;;;;;;7.50;3.50;;;30.30;48.90;;;;;;5014741;28;20080;-73
2021/08/13 05:22:57;;;;;;;8.15;3.65;;;30.40;49.30;;;;;;5014958;28;20123;-73
2021/08/13 05:25:23;;;;;;;6.35;3.60;;;30.60;49.00;;;;;;5014464;28;20018;-74
2021/08/13 05:27:48;;;;;;;6.47;3.40;;;30.70;48.50;;;;;;5015016;28;20037;-70
2021/08/13 05:30:15;;;;;;;7.30;3.38;;;30.90;48.20;;;;;;5033224;28;20014;-70
2021/08/13 05:32:42;;;;;;;8.23;3.58;;;31.10;48.20;;;;;;5032421;28;20025;-71
2021/08/13 05:35:11;;;;;;;5.95;3.22;;;31.20;48.00;;;;;;5032824;28;20355;-71
2021/08/13 05:37:37;;;;;;;7.43;3.55;;;31.10;47.80;;;;;;5029807;28;20477;-70
2021/08/13 05:40:04;;;;;;;7.57;3.50;;;31.00;47.70;;;;;;5030637;28;20029;-71
2021/08/13 05:42:30;;;;;;;11.10;3.60;;;31.30;47.80;;;;;;5032231;28;20029;-70
2021/08/13 05:44:55;;;;;;;6.72;3.17;;;31.30;47.30;;;;;;5029902;28;20024;-71
2021/08/13 05:47:21;;;;;;;5.93;3.45;;;31.40;47.20;;;;;;5031014;28;20025;-71
2021/08/13 05:49:47;;;;;;;4.93;3.30;;;31.60;47.10;;;;;;5032165;28;20023;-71
2021/08/13 05:52:13;;;;;;;7.43;3.50;;;31.60;47.00;;;;;;5031479;28;20025;-71
2021/08/13 05:54:38;;;;;;;5.93;3.40;;;31.70;47.10;;;;;;5019793;28;20060;-71
2021/08/13 05:57:04;;;;;;;6.50;3.50;;;31.80;47.00;;;;;;5032132;28;20033;-69
2021/08/13 05:59:30;;;;;;;7.60;3.55;;;31.90;46.70;;;;;;5023060;28;20018;-69
2021/08/13 06:01:55;;;;;;;7.45;3.78;;;32.00;46.60;;;;;;5013783;28;20072;-69
2021/08/13 06:04:21;;;;;;;5.95;3.50;;;32.10;46.70;;;;;;5013864;28;20037;-72
2021/08/13 06:06:47;;;;;;;9.05;3.60;;;32.30;46.40;;;;;;5029034;28;20017;-69
2021/08/13 06:09:13;;;;;;;7.50;4.15;;;32.40;46.30;;;;;;5033315;28;20112;-70
2021/08/13 06:11:38;;;;;;;6.82;3.67;;;32.50;46.10;;;;;;5033410;28;20021;-70
2021/08/13 06:14:04;;;;;;;8.32;4.25;;;32.50;46.00;;;;;;5033473;28;20024;-71
2021/08/13 06:16:30;;;;;;;7.40;3.58;;;32.60;46.00;;;;;;5015499;28;20472;-73
2021/08/13 06:18:55;;;;;;;7.18;3.45;;;32.70;45.60;;;;;;5014084;28;20030;-77
2021/08/13 06:21:22;;;;;;;8.20;3.63;;;32.70;45.40;;;;;;5013807;28;20109;-77
2021/08/13 06:23:47;;;;;;;6.00;3.13;;;32.80;45.60;;;;;;5013062;28;20022;-78
2021/08/13 06:26:13;;;;;;;6.05;3.85;;;32.80;45.00;;;;;;5015860;28;20076;-79
2021/08/13 06:28:39;;;;;;;6.68;3.50;;;32.90;45.20;;;;;;5013594;28;20026;-78
2021/08/13 06:31:05;;;;;;;6.22;3.72;;;33.00;45.20;;;;;;5025535;28;20021;-78
2021/08/13 06:33:30;;;;;;;6.30;3.50;;;33.00;45.10;;;;;;5031987;28;20017;-75
2021/08/13 06:35:57;;;;;;;6.65;3.70;;;33.10;45.30;;;;;;5031798;28;20022;-76
2021/08/13 06:38:22;;;;;;;8.02;3.63;;;33.20;45.00;;;;;;5033087;28;20460;-79
2021/08/13 06:40:48;;;;;;;7.07;4.20;;;33.30;45.00;;;;;;5032102;28;20025;-78
2021/08/13 06:43:14;;;;;;;6.40;3.88;;;33.50;44.90;;;;;;5021072;28;20026;-77
2021/08/13 06:45:39;;;;;;;6.93;3.92;;;33.50;44.80;;;;;;5011950;28;20021;-73
2021/08/13 06:48:05;;;;;;;5.85;3.60;;;33.60;44.90;;;;;;5013350;28;20034;-72
2021/08/13 06:50:31;;;;;;;6.50;3.67;;;33.60;45.10;;;;;;5013438;28;20401;-74
2021/08/13 06:52:56;;;;;;;5.85;3.70;;;33.70;45.00;;;;;;5013351;28;20049;-75
2021/08/13 06:55:22;;;;;;;5.93;3.63;;;33.90;45.00;;;;;;5012365;28;20033;-75
2021/08/13 06:57:48;;;;;;;8.80;3.50;;;34.00;44.40;;;;;;5013351;28;20067;-74
2021/08/13 07:00:14;;;;;;;6.07;3.70;;;34.00;45.20;;;;;;5012770;28;20025;-75
2021/08/13 07:02:41;;;;;;;7.50;3.38;;;34.10;43.90;;;;;;5014614;28;20026;-77
2021/08/13 07:05:07;;;;;;;7.35;3.55;;;34.20;44.40;;;;;;5013540;28;20030;-75
2021/08/13 07:07:33;;;;;;;6.50;3.22;;;34.30;44.20;;;;;;5019089;28;20077;-76
2021/08/13 07:10:04;;;;;;;7.43;3.45;;;34.30;43.70;;;;;;5036319;28;20122;-75
2021/08/13 07:12:30;;;;;;;4.93;3.05;;;34.40;43.70;;;;;;5036475;28;20025;-76
2021/08/13 07:14:55;;;;;;;5.00;3.13;;;34.50;43.30;;;;;;5036280;28;20375;-75
2021/08/13 07:17:21;;;;;;;5.03;3.30;;;34.60;43.10;;;;;;5035108;28;20033;-76
2021/08/13 07:19:47;;;;;;;5.45;3.20;;;34.60;43.20;;;;;;5026098;28;20076;-75
2021/08/13 07:22:12;;;;;;;9.50;3.80;;;34.70;43.10;;;;;;5033087;28;20026;-75
2021/08/13 07:24:38;;;;;;;5.45;3.22;;;34.70;42.60;;;;;;5036410;28;20029;-76
2021/08/13 07:27:04;;;;;;;4.70;2.92;;;34.70;42.90;;;;;;5036096;28;20021;-76
2021/08/13 07:29:29;;;;;;;6.57;3.40;;;34.80;42.50;;;;;;5035988;28;20044;-76
2021/08/13 07:31:55;;;;;;;5.07;3.10;;;34.90;42.00;;;;;;5035688;28;20135;-76
2021/08/13 07:34:21;;;;;;;5.40;2.95;;;34.70;41.50;;;;;;5036139;28;20020;-75
2021/08/13 07:36:47;;;;;;;6.10;3.20;;;34.60;41.60;;;;;;5035700;28;20104;-75
2021/08/13 07:39:13;;;;;;;5.40;2.90;;;34.50;41.90;;;;;;5036037;28;20436;-75
2021/08/13 07:41:39;;;;;;;4.63;2.67;;;34.60;42.10;;;;;;5034621;28;20029;-74
2021/08/13 07:44:04;;;;;;;5.57;2.92;;;34.70;41.80;;;;;;5035449;28;20021;-74
2021/08/13 07:46:30;;;;;;;4.90;2.80;;;34.70;42.30;;;;;;5030534;28;20365;-76
2021/08/13 07:48:56;;;;;;;5.03;2.90;;;34.80;41.90;;;;;;5031820;28;20030;-75
2021/08/13 07:51:21;;;;;;;6.15;3.20;;;34.80;42.20;;;;;;5033500;28;20120;-74
2021/08/13 07:53:47;;;;;;;8.85;3.28;;;34.90;41.80;;;;;;5034127;28;20021;-76
2021/08/13 07:56:13;;;;;;;7.47;3.38;;;34.80;41.90;;;;;;5035864;28;20104;-77
2021/08/13 07:58:38;;;;;;;6.97;3.30;;;34.70;42.40;;;;;;5034664;28;20436;-76
2021/08/13 08:01:04;;;;;;;4.93;3.08;;;34.70;42.20;;;;;;5035586;28;20410;-76
2021/08/13 08:03:30;;;;;;;5.75;2.90;;;34.90;42.40;;;;;;5033591;28;20518;-76
2021/08/13 08:05:55;;;;;;;6.15;3.70;;;35.10;41.40;;;;;;5033325;28;20030;-75
2021/08/13 08:08:21;;;;;;;6.00;2.88;;;35.30;41.60;;;;;;5033166;28;20041;-74
2021/08/13 08:10:47;;;;;;;6.70;2.90;;;35.20;41.20;;;;;;5034066;28;20094;-75
2021/08/13 08:13:17;;;;;;;5.15;2.78;;;35.10;41.30;;;;;;5035613;28;20100;-76
2021/08/13 08:15:45;;;;;;;4.05;2.53;;;35.00;41.20;;;;;;5034103;28;20025;-75
2021/08/13 08:18:11;;;;;;;4.18;2.65;;;35.00;41.10;;;;;;5034085;28;20029;-76
2021/08/13 08:20:37;;;;;;;6.55;2.90;;;35.00;41.00;;;;;;5033943;28;20018;-75
2021/08/13 08:23:03;;;;;;;3.55;2.30;;;35.20;41.10;;;;;;5034252;28;20025;-74
2021/08/13 08:25:29;;;;;;;3.00;2.00;;;35.10;40.20;;;;;;5034378;28;20025;-76
2021/08/13 08:27:55;;;;;;;6.50;2.28;;;35.20;40.60;;;;;;5035753;28;20031;-76
2021/08/13 08:30:21;;;;;;;3.45;2.05;;;35.30;40.60;;;;;;5038502;28;20517;-76
2021/08/13 08:32:47;;;;;;;4.03;2.20;;;35.40;40.60;;;;;;5043836;28;20353;-76
2021/08/13 08:35:13;;;;;;;6.05;2.47;;;35.50;40.20;;;;;;5042073;28;20025;-76
2021/08/13 08:38:00;;;;;;;4.65;2.45;;;35.60;39.40;;;;;;5040811;28;20029;-76
2021/08/13 08:40:27;;;;;;;3.97;2.33;;;35.50;40.30;;;;;;5034977;28;20014;-76
2021/08/13 08:42:58;;;;;;;4.38;2.38;;;35.80;40.00;;;;;;5035148;28;20025;-76
2021/08/13 08:45:30;;;;;;;4.38;2.20;;;36.00;39.20;;;;;;5033098;28;20024;-75
2021/08/13 08:48:01;;;;;;;5.72;2.33;;;36.20;39.40;;;;;;5033558;28;20176;-76
2021/08/13 08:50:29;;;;;;;4.65;2.63;;;36.50;39.00;;;;;;5033144;28;20463;-77
2021/08/13 08:52:57;;;;;;;4.78;2.47;;;36.50;38.20;;;;;;5033484;28;20029;-76
2021/08/13 08:55:23;;;;;;;4.82;2.30;;;36.30;38.00;;;;;;5031755;28;20125;-77
2021/08/13 08:57:50;;;;;;;6.88;2.70;;;36.20;38.20;;;;;;5032618;28;20408;-76
2021/08/13 09:00:16;;;;;;;5.05;2.75;;;36.20;38.30;;;;;;5034309;28;20100;-76
2021/08/13 09:02:43;;;;;;;4.47;2.50;;;36.30;38.60;;;;;;5033035;28;20113;-76
2021/08/13 09:05:10;;;;;;;5.97;2.63;;;36.20;38.40;;;;;;5031827;28;20037;-75
2021/08/13 09:07:36;;;;;;;5.50;2.95;;;36.20;38.20;;;;;;5033530;28;20132;-76
2021/08/13 09:10:03;;;;;;;4.95;2.58;;;36.10;38.10;;;;;;5033131;28;20511;-76
2021/08/13 09:12:30;;;;;;;4.25;2.47;;;36.00;38.00;;;;;;5031319;28;20357;-75
2021/08/13 09:14:55;;;;;;;5.00;2.75;;;36.00;38.10;;;;;;5033830;28;20037;-76
2021/08/13 09:17:31;;;;;;;7.72;2.65;;;36.00;37.90;;;;;;5031653;28;20026;-76
2021/08/13 09:19:57;;;;;;;5.05;2.60;;;36.10;38.00;;;;;;5028854;28;20028;-77
2021/08/13 09:22:24;;;;;;;4.32;2.58;;;36.10;37.90;;;;;;5031443;28;20383;-76
2021/08/13 09:24:55;;;;;;;6.20;2.45;;;36.30;38.10;;;;;;5033553;28;20018;-76
2021/08/13 09:27:26;;;;;;;4.30;2.30;;;36.20;37.80;;;;;;5032436;28;20056;-76
2021/08/13 09:30:17;;;;;;;5.03;2.60;;;36.10;38.20;;;;;;5032893;28;20020;-77
2021/08/13 09:32:54;;;;;;;5.38;2.50;;;36.30;38.20;;;;;;5031741;28;20028;-76
2021/08/13 09:35:31;;;;;;;4.15;2.40;;;36.30;38.30;;;;;;5033493;28;20017;-77
2021/08/13 09:37:57;;;;;;;8.27;2.40;;;36.30;37.90;;;;;;5031900;28;20076;-76
2021/08/13 09:40:23;;;;;;;4.63;2.60;;;36.40;37.70;;;;;;5032203;28;20029;-76
2021/08/13 09:42:49;;;;;;;4.70;2.20;;;36.30;37.20;;;;;;5033462;28;20037;-76
2021/08/13 09:45:15;;;;;;;4.72;2.03;;;36.40;37.00;;;;;;5030243;28;20098;-75
2021/08/13 09:47:47;;;;;;;3.65;2.13;;;36.40;36.70;;;;;;5031460;28;20041;-75
2021/08/13 09:50:16;;;;;;;4.03;2.00;;;36.60;37.10;;;;;;5033388;28;20479;-75
2021/08/13 09:53:02;;;;;;;4.88;2.20;;;36.70;36.70;;;;;;5033955;28;20080;-76
2021/08/13 09:55:28;;;;;;;4.10;1.90;;;36.40;36.50;;;;;;5033427;28;20029;-77
2021/08/13 09:57:54;;;;;;;5.07;2.03;;;36.50;36.80;;;;;;5043550;28;20053;-75
2021/08/13 10:00:20;;;;;;;3.47;2.00;;;36.70;36.80;;;;;;5046650;28;20022;-74
2021/08/13 10:02:46;;;;;;;4.45;2.65;;;36.60;37.10;;;;;;5039950;28;20063;-76
2021/08/13 10:05:25;;;;;;;3.38;2.20;;;36.50;36.40;;;;;;5035527;28;20088;-75
2021/08/13 10:07:56;;;;;;;5.20;2.25;;;36.60;37.00;;;;;;5032893;28;20423;-75
2021/08/13 10:10:29;;;;;;;4.03;2.13;;;36.60;36.60;;;;;;5033038;28;20025;-74
2021/08/13 10:12:55;;;;;;;3.95;2.00;;;36.60;36.40;;;;;;5031702;28;20079;-74
2021/08/13 10:15:29;;;;;;;4.65;2.28;;;36.50;36.40;;;;;;5032276;28;20030;-74
2021/08/13 10:17:56;;;;;;;6.47;2.15;;;36.10;36.40;;;;;;5032144;28;20367;-74
2021/08/13 10:20:27;;;;;;;6.15;2.22;;;36.00;36.90;;;;;;5031759;28;20316;-74
2021/08/13 10:22:53;;;;;;;6.70;2.15;;;35.80;37.00;;;;;;5031043;28;20021;-74
2021/08/13 10:25:22;;;;;;;4.72;2.38;;;35.80;37.50;;;;;;5031584;28;20021;-74
2021/08/13 10:27:49;;;;;;;4.55;2.00;;;36.00;37.80;;;;;;5031384;28;20029;-74
2021/08/13 10:30:19;;;;;;;3.97;2.22;;;36.20;37.50;;;;;;5031817;28;20447;-73
2021/08/13 10:32:46;;;;;;;3.05;2.28;;;36.20;37.40;;;;;;5032402;28;20032;-80
2021/08/13 10:35:12;;;;;;;4.00;2.20;;;36.10;37.00;;;;;;5032809;28;20021;-79
2021/08/13 10:37:39;;;;;;;4.18;1.90;;;36.00;37.40;;;;;;5032621;28;20037;-76
2021/08/13 10:40:07;;;;;;;3.22;2.08;;;36.00;37.30;;;;;;5032893;28;20022;-77
2021/08/13 10:42:36;;;;;;;5.18;2.20;;;36.10;37.50;;;;;;5028309;28;20014;-78
2021/08/13 10:45:06;;;;;;;5.65;2.55;;;36.00;37.40;;;;;;5036627;28;20029;-78
2021/08/13 10:47:39;;;;;;;3.05;1.90;;;36.00;37.70;;;;;;5036327;28;20100;-78
2021/08/13 10:50:07;;;;;;;4.60;1.90;;;35.90;37.60;;;;;;5029086;28;20024;-77
2021/08/13 10:52:38;;;;;;;4.75;2.00;;;35.80;37.60;;;;;;5035019;28;20044;-78
2021/08/13 10:55:08;;;;;;;6.72;2.22;;;35.80;38.30;;;;;;5032176;28;20046;-74
2021/08/13 10:58:00;;;;;;;4.30;2.20;;;35.80;38.50;;;;;;5021760;28;20104;-74
2021/08/13 11:00:46;;;;;;;4.25;2.08;;;36.10;38.20;;;;;;5021240;28;20038;-73
2021/08/13 11:03:19;;;;;;;6.75;2.42;;;36.00;37.70;;;;;;5020507;28;20025;-73
2021/08/13 11:05:53;;;;;;;6.73;2.20;;;35.80;37.50;;;;;;5035149;28;20452;-73
2021/08/13 11:08:20;;;;;;;3.42;2.00;;;35.70;37.50;;;;;;5035097;28;20789;-74
2021/08/13 11:10:49;;;;;;;6.07;1.88;;;35.60;37.40;;;;;;5036525;28;20056;-74
2021/08/13 11:13:19;;;;;;;5.03;2.03;;;35.60;37.60;;;;;;5036669;28;20052;-73
2021/08/13 11:15:47;;;;;;;5.32;2.05;;;35.80;37.60;;;;;;5028851;28;20042;-73
2021/08/13 11:18:40;;;;;;;4.97;2.38;;;35.80;37.70;;;;;;5015764;28;20151;-72
2021/08/13 11:21:09;;;;;;;3.53;1.92;;;35.70;37.70;;;;;;5017010;28;20026;-73
2021/08/13 11:24:02;;;;;;;5.78;2.30;;;35.60;38.00;;;;;;5016758;28;20096;-72
2021/08/13 11:27:06;;;;;;;5.72;2.10;;;35.40;38.00;;;;;;5016934;28;20417;-72
2021/08/13 11:29:33;;;;;;;4.55;2.15;;;35.20;38.50;;;;;;5015385;28;20026;-72
2021/08/13 11:32:20;;;;;;;6.32;2.10;;;35.00;38.50;;;;;;5016191;28;20033;-71
2021/08/13 11:35:02;;;;;;;4.30;2.10;;;34.90;38.50;;;;;;5016472;28;20033;-73
2021/08/13 11:37:27;;;;;;;5.00;1.95;;;34.30;38.90;;;;;;5017097;28;20053;-73
2021/08/13 11:39:54;;;;;;;4.80;2.25;;;33.40;39.60;;;;;;5016235;28;20068;-72
2021/08/13 11:42:22;;;;;;;4.07;1.98;;;32.70;40.70;;;;;;5016176;28;20022;-72
2021/08/13 11:44:49;;;;;;;3.00;2.13;;;32.10;41.50;;;;;;5015914;28;20022;-73
2021/08/13 11:47:16;;;;;;;3.55;2.00;;;31.40;41.90;;;;;;5014848;28;20053;-72
2021/08/13 11:49:44;;;;;;;3.90;1.92;;;31.10;42.40;;;;;;5021952;28;20025;-69
2021/08/13 11:52:10;;;;;;;4.28;1.88;;;30.80;43.30;;;;;;5034130;28;20112;-70
2021/08/13 11:54:36;;;;;;;4.32;2.10;;;30.40;43.80;;;;;;5031429;28;20152;-69
2021/08/13 11:57:19;;;;;;;4.78;2.13;;;30.20;44.20;;;;;;5034089;28;20078;-69
2021/08/13 11:59:45;;;;;;;4.90;2.15;;;30.00;44.50;;;;;;5033933;28;20041;-69
2021/08/13 12:02:12;;;;;;;4.25;2.10;;;29.60;44.50;;;;;;5020930;28;20030;-70
2021/08/13 12:04:37;;;;;;;3.53;1.80;;;29.40;44.70;;;;;;5035625;28;20109;-70
2021/08/13 12:07:03;;;;;;;4.47;2.25;;;29.20;45.00;;;;;;5033657;28;20124;-70
2021/08/13 12:09:37;;;;;;;3.17;1.85;;;29.00;45.50;;;;;;5034032;28;20029;-70
2021/08/13 12:12:04;;;;;;;4.73;2.00;;;28.90;45.80;;;;;;5034468;28;20459;-70
2021/08/13 12:14:31;;;;;;;4.05;1.90;;;28.80;45.90;;;;;;5034221;28;20263;-70
2021/08/13 12:16:57;;;;;;;5.10;1.98;;;28.70;46.20;;;;;;5034820;28;20051;-69
2021/08/13 12:19:23;;;;;;;5.30;1.90;;;28.70;46.50;;;;;;5023762;28;20025;-72
2021/08/13 12:21:56;;;;;;;3.83;1.92;;;28.60;46.70;;;;;;5014157;28;20030;-72
2021/08/13 12:24:38;;;;;;;4.80;2.10;;;28.50;47.00;;;;;;5015263;28;20018;-72
2021/08/13 12:27:09;;;;;;;3.85;2.00;;;28.40;46.90;;;;;;5014055;28;20693;-72
2021/08/13 12:29:37;;;;;;;5.72;1.88;;;28.40;46.80;;;;;;5015337;28;20061;-72
2021/08/13 12:32:06;;;;;;;4.18;2.03;;;28.30;47.00;;;;;;5013920;28;20026;-71
2021/08/13 12:34:34;;;;;;;4.95;1.80;;;28.30;47.20;;;;;;5015115;28;20156;-71
2021/08/13 12:37:11;;;;;;;4.28;1.88;;;28.20;47.50;;;;;;5013784;28;20022;-72
2021/08/13 12:39:42;;;;;;;5.32;1.70;;;28.20;47.50;;;;;;5015146;28;20057;-72
2021/08/13 12:42:09;;;;;;;3.90;1.90;;;28.20;47.20;;;;;;5013970;28;20022;-71
2021/08/13 12:44:38;;;;;;;3.10;1.63;;;28.20;47.40;;;;;;5014873;28;20472;-71
2021/08/13 12:47:05;;;;;;;5.68;1.88;;;28.10;47.50;;;;;;5013632;28;20426;-72
2021/08/13 12:49:34;;;;;;;5.75;1.92;;;28.10;47.70;;;;;;5014652;28;20030;-71